sensor_id;sensor_type;location;lat;lon;timestamp;P1;P2;P0
77692;PMS5003;66984;47.404;18.836;2023-07-31T00:00:52;6.50;6.00;3.00
77692;PMS5003;66984;47.404;18.836;2023-07-31T00:01:55;7.75;7.75;3.00
77692;PMS5003;66984;47.404;18.836;2023-07-31T00:02:58;8.75;7.00;3.00
77692;PMS5003;66984;47.404;18.836;2023-07-31T00:04:01;7.00;6.25;3.00
77692;PMS5003;66984;47.404;18.836;2023-07-31T00:05:10;6.00;6.00;3.00
77692;PMS5003;66984;47.404;18.836;2023-07-31T00:06:13;7.00;7.00;3.00
77692;PMS5003;66984;47.404;18.836;2023-07-31T00:07:16;9.00;7.00;3.00
77692;PMS5003;66984;47.404;18.836;2023-07-31T00:08:25;9.00;8.00;2.00
77692;PMS5003;66984;47.404;18.836;2023-07-31T00:09:29;6.50;6.00;2.50
77692;PMS5003;66984;47.404;18.836;2023-07-31T00:10:32;6.50;6.50;3.50
77692;PMS5003;66984;47.404;18.836;2023-07-31T00:11:36;9.50;9.50;4.00
77692;PMS5003;66984;47.404;18.836;2023-07-31T00:12:39;7.50;7.50;3.00
77692;PMS5003;66984;47.404;18.836;2023-07-31T00:13:49;6.50;5.50;3.50
77692;PMS5003;66984;47.404;18.836;2023-07-31T00:14:52;7.00;7.00;3.00
77692;PMS5003;66984;47.404;18.836;2023-07-31T00:16:01;7.00;7.00;2.00
77692;PMS5003;66984;47.404;18.836;2023-07-31T00:17:04;6.50;6.50;3.00
77692;PMS5003;66984;47.404;18.836;2023-07-31T00:18:07;7.00;7.00;2.00
77692;PMS5003;66984;47.404;18.836;2023-07-31T00:19:10;5.00;5.00;3.00
77692;PMS5003;66984;47.404;18.836;2023-07-31T00:20:13;6.00;6.00;3.25
77692;PMS5003;66984;47.404;18.836;2023-07-31T00:21:22;6.50;5.50;3.00
77692;PMS5003;66984;47.404;18.836;2023-07-31T00:22:25;7.50;7.50;3.00
77692;PMS5003;66984;47.404;18.836;2023-07-31T00:23:34;7.75;7.75;3.00
77692;PMS5003;66984;47.404;18.836;2023-07-31T00:24:37;7.00;7.00;4.00
77692;PMS5003;66984;47.404;18.836;2023-07-31T00:25:41;8.00;8.00;4.00
77692;PMS5003;66984;47.404;18.836;2023-07-31T00:26:44;6.00;5.00;2.00
77692;PMS5003;66984;47.404;18.836;2023-07-31T00:27:47;7.50;7.50;3.00
77692;PMS5003;66984;47.404;18.836;2023-07-31T00:29:03;7.50;6.50;4.50
77692;PMS5003;66984;47.404;18.836;2023-07-31T00:30:06;7.75;7.00;5.00
77692;PMS5003;66984;47.404;18.836;2023-07-31T00:31:09;7.00;7.00;3.50
77692;PMS5003;66984;47.404;18.836;2023-07-31T00:32:12;8.00;7.50;3.00
77692;PMS5003;66984;47.404;18.836;2023-07-31T00:33:15;7.50;7.50;3.00
77692;PMS5003;66984;47.404;18.836;2023-07-31T00:34:24;7.00;7.00;3.50
77692;PMS5003;66984;47.404;18.836;2023-07-31T00:35:27;9.00;9.00;4.00
77692;PMS5003;66984;47.404;18.836;2023-07-31T00:36:30;7.25;7.25;4.25
77692;PMS5003;66984;47.404;18.836;2023-07-31T00:37:33;8.50;7.50;3.50
77692;PMS5003;66984;47.404;18.836;2023-07-31T00:38:42;6.50;6.50;4.00
77692;PMS5003;66984;47.404;18.836;2023-07-31T00:39:45;7.00;7.00;4.00
77692;PMS5003;66984;47.404;18.836;2023-07-31T00:40:48;7.00;7.00;2.00
77692;PMS5003;66984;47.404;18.836;2023-07-31T00:41:51;7.25;7.25;3.00
77692;PMS5003;66984;47.404;18.836;2023-07-31T00:42:54;9.00;8.00;4.00
77692;PMS5003;66984;47.404;18.836;2023-07-31T00:44:03;7.00;7.00;3.00
77692;PMS5003;66984;47.404;18.836;2023-07-31T00:45:06;8.25;7.50;4.50
77692;PMS5003;66984;47.404;18.836;2023-07-31T00:46:09;7.00;6.00;3.00
77692;PMS5003;66984;47.404;18.836;2023-07-31T00:47:14;6.50;6.50;2.00
77692;PMS5003;66984;47.404;18.836;2023-07-31T00:48:17;7.00;7.00;2.00
77692;PMS5003;66984;47.404;18.836;2023-07-31T00:49:26;10.00;9.50;4.50
77692;PMS5003;66984;47.404;18.836;2023-07-31T00:50:30;9.75;9.25;3.50
77692;PMS5003;66984;47.404;18.836;2023-07-31T00:51:33;6.00;6.00;3.00
77692;PMS5003;66984;47.404;18.836;2023-07-31T00:52:36;6.50;5.50;5.00
77692;PMS5003;66984;47.404;18.836;2023-07-31T00:53:46;7.00;7.00;3.00
77692;PMS5003;66984;47.404;18.836;2023-07-31T00:54:49;7.00;7.00;2.25
77692;PMS5003;66984;47.404;18.836;2023-07-31T00:55:53;6.00;6.00;2.00
77692;PMS5003;66984;47.404;18.836;2023-07-31T00:56:56;6.00;6.00;2.00
77692;PMS5003;66984;47.404;18.836;2023-07-31T00:57:59;7.00;6.00;3.00
77692;PMS5003;66984;47.404;18.836;2023-07-31T00:59:08;7.50;7.50;4.00
77692;PMS5003;66984;47.404;18.836;2023-07-31T01:00:11;7.25;7.00;4.00
77692;PMS5003;66984;47.404;18.836;2023-07-31T01:01:15;6.00;6.00;4.00
77692;PMS5003;66984;47.404;18.836;2023-07-31T01:02:20;8.50;8.50;3.50
77692;PMS5003;66984;47.404;18.836;2023-07-31T01:03:23;6.50;6.50;2.50
77692;PMS5003;66984;47.404;18.836;2023-07-31T01:04:33;5.25;5.25;2.50
77692;PMS5003;66984;47.404;18.836;2023-07-31T01:05:58;8.25;8.25;4.50
77692;PMS5003;66984;47.404;18.836;2023-07-31T01:10:16;9.00;8.00;3.00
77692;PMS5003;66984;47.404;18.836;2023-07-31T01:11:43;7.75;7.75;3.50
77692;PMS5003;66984;47.404;18.836;2023-07-31T01:12:54;8.50;8.50;3.50
77692;PMS5003;66984;47.404;18.836;2023-07-31T01:13:59;9.00;9.00;4.00
77692;PMS5003;66984;47.404;18.836;2023-07-31T01:16:20;9.00;9.00;4.00
77692;PMS5003;66984;47.404;18.836;2023-07-31T01:17:23;9.25;9.25;4.50
77692;PMS5003;66984;47.404;18.836;2023-07-31T01:18:26;6.00;6.00;4.00
77692;PMS5003;66984;47.404;18.836;2023-07-31T01:19:29;7.00;7.00;4.00
77692;PMS5003;66984;47.404;18.836;2023-07-31T01:20:40;9.00;8.50;4.50
77692;PMS5003;66984;47.404;18.836;2023-07-31T01:24:36;7.00;7.00;4.00
77692;PMS5003;66984;47.404;18.836;2023-07-31T01:26:14;10.00;10.00;4.00
77692;PMS5003;66984;47.404;18.836;2023-07-31T01:27:30;8.50;8.50;5.00
77692;PMS5003;66984;47.404;18.836;2023-07-31T01:28:55;9.75;9.75;3.50
77692;PMS5003;66984;47.404;18.836;2023-07-31T01:30:15;8.50;8.50;4.00
77692;PMS5003;66984;47.404;18.836;2023-07-31T01:31:29;10.00;10.00;5.00
77692;PMS5003;66984;47.404;18.836;2023-07-31T01:32:32;10.00;10.00;4.00
77692;PMS5003;66984;47.404;18.836;2023-07-31T01:33:36;10.00;8.75;5.00
77692;PMS5003;66984;47.404;18.836;2023-07-31T01:34:40;10.00;9.00;5.00
77692;PMS5003;66984;47.404;18.836;2023-07-31T01:35:45;10.50;10.00;4.00
77692;PMS5003;66984;47.404;18.836;2023-07-31T01:36:55;7.00;7.00;3.00
77692;PMS5003;66984;47.404;18.836;2023-07-31T01:37:59;6.75;6.75;3.00
77692;PMS5003;66984;47.404;18.836;2023-07-31T01:39:02;7.00;7.00;3.00
77692;PMS5003;66984;47.404;18.836;2023-07-31T01:40:06;8.50;8.50;4.00
77692;PMS5003;66984;47.404;18.836;2023-07-31T01:41:09;7.00;7.00;4.00
77692;PMS5003;66984;47.404;18.836;2023-07-31T01:42:19;9.50;9.00;3.25
77692;PMS5003;66984;47.404;18.836;2023-07-31T01:43:21;10.25;10.25;4.00
77692;PMS5003;66984;47.404;18.836;2023-07-31T01:44:25;7.50;7.00;4.00
77692;PMS5003;66984;47.404;18.836;2023-07-31T01:45:28;7.50;7.00;3.00
77692;PMS5003;66984;47.404;18.836;2023-07-31T01:46:38;6.00;6.00;2.00
77692;PMS5003;66984;47.404;18.836;2023-07-31T01:47:41;7.00;6.25;3.00
77692;PMS5003;66984;47.404;18.836;2023-07-31T01:48:44;8.00;7.00;4.00
77692;PMS5003;66984;47.404;18.836;2023-07-31T01:49:47;7.00;6.00;3.00
77692;PMS5003;66984;47.404;18.836;2023-07-31T01:50:49;7.50;7.00;3.50
77692;PMS5003;66984;47.404;18.836;2023-07-31T01:51:59;9.25;9.25;4.25
77692;PMS5003;66984;47.404;18.836;2023-07-31T01:53:01;9.75;8.00;4.50
77692;PMS5003;66984;47.404;18.836;2023-07-31T01:54:06;8.00;7.00;2.00
77692;PMS5003;66984;47.404;18.836;2023-07-31T01:55:09;7.00;6.00;3.00
77692;PMS5003;66984;47.404;18.836;2023-07-31T01:56:12;7.00;7.00;4.00
77692;PMS5003;66984;47.404;18.836;2023-07-31T01:57:22;8.00;8.00;4.00
77692;PMS5003;66984;47.404;18.836;2023-07-31T01:58:25;7.00;7.00;3.75
77692;PMS5003;66984;47.404;18.836;2023-07-31T01:59:34;8.00;7.00;3.00
77692;PMS5003;66984;47.404;18.836;2023-07-31T02:00:37;7.00;7.00;3.00
77692;PMS5003;66984;47.404;18.836;2023-07-31T02:01:40;7.00;7.00;2.25
77692;PMS5003;66984;47.404;18.836;2023-07-31T02:02:42;6.00;5.50;4.00
77692;PMS5003;66984;47.404;18.836;2023-07-31T02:03:45;8.00;8.00;3.75
77692;PMS5003;66984;47.404;18.836;2023-07-31T02:04:55;6.00;6.00;2.00
77692;PMS5003;66984;47.404;18.836;2023-07-31T02:05:58;5.00;5.00;2.00
77692;PMS5003;66984;47.404;18.836;2023-07-31T02:07:00;5.00;4.00;2.00
77692;PMS5003;66984;47.404;18.836;2023-07-31T02:08:03;6.00;6.00;2.00
77692;PMS5003;66984;47.404;18.836;2023-07-31T02:09:07;7.00;6.50;3.00
77692;PMS5003;66984;47.404;18.836;2023-07-31T02:10:16;7.00;5.00;2.00
77692;PMS5003;66984;47.404;18.836;2023-07-31T02:11:26;5.00;4.00;3.00
77692;PMS5003;66984;47.404;18.836;2023-07-31T02:12:29;6.00;6.00;2.00
77692;PMS5003;66984;47.404;18.836;2023-07-31T02:13:34;5.50;5.00;2.00
77692;PMS5003;66984;47.404;18.836;2023-07-31T02:14:37;7.00;7.00;2.00
77692;PMS5003;66984;47.404;18.836;2023-07-31T02:15:40;6.00;6.00;2.00
77692;PMS5003;66984;47.404;18.836;2023-07-31T02:16:49;5.50;5.50;2.00
77692;PMS5003;66984;47.404;18.836;2023-07-31T02:17:52;5.00;5.00;2.00
77692;PMS5003;66984;47.404;18.836;2023-07-31T02:18:54;6.50;6.50;3.00
77692;PMS5003;66984;47.404;18.836;2023-07-31T02:19:57;5.50;5.00;2.00
77692;PMS5003;66984;47.404;18.836;2023-07-31T02:21:00;4.00;4.00;2.00
77692;PMS5003;66984;47.404;18.836;2023-07-31T02:22:10;4.00;4.00;2.00
77692;PMS5003;66984;47.404;18.836;2023-07-31T02:23:13;6.00;6.00;1.00
77692;PMS5003;66984;47.404;18.836;2023-07-31T02:24:16;3.25;3.00;0.00
77692;PMS5003;66984;47.404;18.836;2023-07-31T02:25:25;5.00;5.00;0.00
77692;PMS5003;66984;47.404;18.836;2023-07-31T02:26:28;4.50;4.50;0.00
77692;PMS5003;66984;47.404;18.836;2023-07-31T02:27:30;4.50;3.25;0.00
77692;PMS5003;66984;47.404;18.836;2023-07-31T02:28:33;6.00;5.00;1.00
77692;PMS5003;66984;47.404;18.836;2023-07-31T02:29:51;6.00;6.00;3.00
77692;PMS5003;66984;47.404;18.836;2023-07-31T02:31:01;6.00;6.00;2.00
77692;PMS5003;66984;47.404;18.836;2023-07-31T02:32:04;4.00;4.00;1.00
77692;PMS5003;66984;47.404;18.836;2023-07-31T02:33:07;4.00;4.00;0.00
77692;PMS5003;66984;47.404;18.836;2023-07-31T02:34:10;4.00;4.00;0.00
77692;PMS5003;66984;47.404;18.836;2023-07-31T02:35:13;4.00;4.00;0.00
77692;PMS5003;66984;47.404;18.836;2023-07-31T02:36:24;5.00;5.00;0.00
77692;PMS5003;66984;47.404;18.836;2023-07-31T02:37:27;4.00;3.00;0.00
77692;PMS5003;66984;47.404;18.836;2023-07-31T02:38:31;3.00;3.00;0.00
77692;PMS5003;66984;47.404;18.836;2023-07-31T02:39:34;3.00;3.00;0.00
77692;PMS5003;66984;47.404;18.836;2023-07-31T02:40:43;3.00;3.00;0.00
77692;PMS5003;66984;47.404;18.836;2023-07-31T02:41:46;2.50;2.50;0.00
77692;PMS5003;66984;47.404;18.836;2023-07-31T02:42:49;3.00;3.00;0.00
77692;PMS5003;66984;47.404;18.836;2023-07-31T02:43:52;2.00;2.00;0.00
77692;PMS5003;66984;47.404;18.836;2023-07-31T02:44:55;3.00;3.00;0.00
77692;PMS5003;66984;47.404;18.836;2023-07-31T02:46:05;2.00;2.00;0.00
77692;PMS5003;66984;47.404;18.836;2023-07-31T02:47:08;3.00;3.00;0.00
77692;PMS5003;66984;47.404;18.836;2023-07-31T02:48:11;3.00;3.00;1.00
77692;PMS5003;66984;47.404;18.836;2023-07-31T02:49:14;1.25;1.25;0.00
77692;PMS5003;66984;47.404;18.836;2023-07-31T02:50:17;1.00;1.00;0.00
77692;PMS5003;66984;47.404;18.836;2023-07-31T02:51:26;2.50;2.50;0.00
77692;PMS5003;66984;47.404;18.836;2023-07-31T02:52:29;3.00;3.00;0.00
77692;PMS5003;66984;47.404;18.836;2023-07-31T02:53:32;2.00;2.00;0.00
77692;PMS5003;66984;47.404;18.836;2023-07-31T02:54:34;2.00;2.00;0.00
77692;PMS5003;66984;47.404;18.836;2023-07-31T02:55:37;3.50;3.50;0.00
77692;PMS5003;66984;47.404;18.836;2023-07-31T02:56:47;2.25;1.25;0.00
77692;PMS5003;66984;47.404;18.836;2023-07-31T02:57:50;1.75;1.75;0.00
77692;PMS5003;66984;47.404;18.836;2023-07-31T02:59:03;1.00;1.00;0.00
77692;PMS5003;66984;47.404;18.836;2023-07-31T03:00:06;1.75;1.75;0.00
77692;PMS5003;66984;47.404;18.836;2023-07-31T03:01:09;2.00;2.00;0.00
77692;PMS5003;66984;47.404;18.836;2023-07-31T03:02:12;2.00;2.00;0.00
77692;PMS5003;66984;47.404;18.836;2023-07-31T03:03:22;1.00;0.75;0.00
77692;PMS5003;66984;47.404;18.836;2023-07-31T03:04:32;2.00;1.00;0.00
77692;PMS5003;66984;47.404;18.836;2023-07-31T03:05:35;2.00;2.00;0.00
77692;PMS5003;66984;47.404;18.836;2023-07-31T03:06:38;3.00;2.50;0.00
77692;PMS5003;66984;47.404;18.836;2023-07-31T03:07:41;3.00;2.75;0.00
77692;PMS5003;66984;47.404;18.836;2023-07-31T03:08:44;4.00;3.00;0.00
77692;PMS5003;66984;47.404;18.836;2023-07-31T03:09:54;2.00;2.00;0.00
77692;PMS5003;66984;47.404;18.836;2023-07-31T03:10:57;4.00;3.25;0.00
77692;PMS5003;66984;47.404;18.836;2023-07-31T03:12:00;3.00;2.00;0.00
77692;PMS5003;66984;47.404;18.836;2023-07-31T03:13:03;1.50;1.50;0.00
77692;PMS5003;66984;47.404;18.836;2023-07-31T03:14:05;2.00;2.00;0.00
77692;PMS5003;66984;47.404;18.836;2023-07-31T03:15:18;4.00;4.00;0.00
77692;PMS5003;66984;47.404;18.836;2023-07-31T03:16:28;2.00;2.00;0.00
77692;PMS5003;66984;47.404;18.836;2023-07-31T03:17:31;2.00;2.00;0.00
77692;PMS5003;66984;47.404;18.836;2023-07-31T03:18:34;3.00;3.00;0.00
77692;PMS5003;66984;47.404;18.836;2023-07-31T03:19:37;2.00;1.00;0.00
77692;PMS5003;66984;47.404;18.836;2023-07-31T03:20:43;3.00;3.00;0.00
77692;PMS5003;66984;47.404;18.836;2023-07-31T03:21:53;2.25;2.25;0.00
77692;PMS5003;66984;47.404;18.836;2023-07-31T03:23:02;1.00;1.00;0.00
77692;PMS5003;66984;47.404;18.836;2023-07-31T03:24:05;2.25;2.00;0.00
77692;PMS5003;66984;47.404;18.836;2023-07-31T03:25:08;2.00;2.00;0.00
77692;PMS5003;66984;47.404;18.836;2023-07-31T03:26:12;3.00;3.00;0.00
77692;PMS5003;66984;47.404;18.836;2023-07-31T03:27:16;2.00;2.00;0.00
77692;PMS5003;66984;47.404;18.836;2023-07-31T03:28:25;2.00;2.00;0.00
77692;PMS5003;66984;47.404;18.836;2023-07-31T03:29:40;4.00;4.00;0.00
77692;PMS5003;66984;47.404;18.836;2023-07-31T03:30:43;2.00;2.00;0.00
77692;PMS5003;66984;47.404;18.836;2023-07-31T03:31:47;2.00;2.00;0.00
77692;PMS5003;66984;47.404;18.836;2023-07-31T03:32:50;3.00;3.00;0.00
77692;PMS5003;66984;47.404;18.836;2023-07-31T03:34:00;2.50;2.50;0.00
77692;PMS5003;66984;47.404;18.836;2023-07-31T03:35:03;1.00;1.00;0.00
77692;PMS5003;66984;47.404;18.836;2023-07-31T03:36:07;1.50;1.50;0.00
77692;PMS5003;66984;47.404;18.836;2023-07-31T03:37:10;2.00;2.00;0.00
77692;PMS5003;66984;47.404;18.836;2023-07-31T03:38:13;2.50;2.50;0.00
77692;PMS5003;66984;47.404;18.836;2023-07-31T03:39:23;2.00;2.00;0.00
77692;PMS5003;66984;47.404;18.836;2023-07-31T03:40:26;2.00;2.00;0.00
77692;PMS5003;66984;47.404;18.836;2023-07-31T03:41:29;4.25;3.00;0.00
77692;PMS5003;66984;47.404;18.836;2023-07-31T03:42:32;4.00;4.00;0.00
77692;PMS5003;66984;47.404;18.836;2023-07-31T03:43:41;3.00;3.00;0.00
77692;PMS5003;66984;47.404;18.836;2023-07-31T03:44:44;3.00;2.00;0.00
77692;PMS5003;66984;47.404;18.836;2023-07-31T03:45:47;2.00;2.00;0.00
77692;PMS5003;66984;47.404;18.836;2023-07-31T03:46:50;3.00;3.00;0.00
77692;PMS5003;66984;47.404;18.836;2023-07-31T03:47:53;4.25;4.00;0.00
77692;PMS5003;66984;47.404;18.836;2023-07-31T03:49:03;3.00;3.00;0.00
77692;PMS5003;66984;47.404;18.836;2023-07-31T03:50:06;4.00;4.00;0.00
77692;PMS5003;66984;47.404;18.836;2023-07-31T03:51:09;3.00;3.00;0.00
77692;PMS5003;66984;47.404;18.836;2023-07-31T03:52:12;1.00;1.00;0.00
77692;PMS5003;66984;47.404;18.836;2023-07-31T03:53:21;2.25;1.25;0.00
77692;PMS5003;66984;47.404;18.836;2023-07-31T03:54:24;3.00;2.75;0.00
77692;PMS5003;66984;47.404;18.836;2023-07-31T03:55:27;3.00;1.00;0.00
77692;PMS5003;66984;47.404;18.836;2023-07-31T03:56:30;2.00;2.00;0.00
77692;PMS5003;66984;47.404;18.836;2023-07-31T03:57:36;2.00;2.00;0.00
77692;PMS5003;66984;47.404;18.836;2023-07-31T03:58:45;2.00;2.00;0.00
77692;PMS5003;66984;47.404;18.836;2023-07-31T03:59:48;1.00;1.00;0.00
77692;PMS5003;66984;47.404;18.836;2023-07-31T04:00:51;1.00;1.00;0.00
77692;PMS5003;66984;47.404;18.836;2023-07-31T04:01:54;2.00;2.00;0.00
77692;PMS5003;66984;47.404;18.836;2023-07-31T04:02:57;1.00;1.00;0.00
77692;PMS5003;66984;47.404;18.836;2023-07-31T04:04:06;0.00;0.00;0.00
77692;PMS5003;66984;47.404;18.836;2023-07-31T04:05:09;0.00;0.00;0.00
77692;PMS5003;66984;47.404;18.836;2023-07-31T04:06:13;3.25;3.00;0.00
77692;PMS5003;66984;47.404;18.836;2023-07-31T04:07:16;3.00;2.25;0.00
77692;PMS5003;66984;47.404;18.836;2023-07-31T04:08:25;2.00;2.00;0.00
77692;PMS5003;66984;47.404;18.836;2023-07-31T04:09:28;2.00;2.00;0.00
77692;PMS5003;66984;47.404;18.836;2023-07-31T04:10:31;2.50;1.50;0.00
77692;PMS5003;66984;47.404;18.836;2023-07-31T04:11:35;1.00;1.00;0.00
77692;PMS5003;66984;47.404;18.836;2023-07-31T04:12:38;2.25;2.25;0.00
77692;PMS5003;66984;47.404;18.836;2023-07-31T04:13:51;3.00;3.00;0.00
77692;PMS5003;66984;47.404;18.836;2023-07-31T04:14:54;3.00;2.50;0.00
77692;PMS5003;66984;47.404;18.836;2023-07-31T04:16:03;2.25;2.00;0.00
77692;PMS5003;66984;47.404;18.836;2023-07-31T04:17:06;1.00;1.00;0.00
77692;PMS5003;66984;47.404;18.836;2023-07-31T04:18:12;3.00;3.00;1.00
77692;PMS5003;66984;47.404;18.836;2023-07-31T04:19:15;3.00;2.00;1.00
77692;PMS5003;66984;47.404;18.836;2023-07-31T04:20:19;2.00;2.00;1.00
77692;PMS5003;66984;47.404;18.836;2023-07-31T04:21:28;1.00;1.00;0.00
77692;PMS5003;66984;47.404;18.836;2023-07-31T04:22:31;0.00;0.00;0.00
77692;PMS5003;66984;47.404;18.836;2023-07-31T04:23:34;2.00;2.00;0.00
77692;PMS5003;66984;47.404;18.836;2023-07-31T04:24:37;1.25;1.25;0.00
77692;PMS5003;66984;47.404;18.836;2023-07-31T04:25:40;1.00;1.00;0.00
77692;PMS5003;66984;47.404;18.836;2023-07-31T04:26:50;1.25;1.25;0.00
77692;PMS5003;66984;47.404;18.836;2023-07-31T04:27:53;2.00;2.00;0.00
77692;PMS5003;66984;47.404;18.836;2023-07-31T04:29:09;3.00;2.00;1.00
77692;PMS5003;66984;47.404;18.836;2023-07-31T04:30:18;4.00;4.00;1.00
77692;PMS5003;66984;47.404;18.836;2023-07-31T04:31:21;3.00;2.00;0.00
77692;PMS5003;66984;47.404;18.836;2023-07-31T04:32:30;2.25;1.25;0.00
77692;PMS5003;66984;47.404;18.836;2023-07-31T04:33:33;2.00;2.00;0.00
77692;PMS5003;66984;47.404;18.836;2023-07-31T04:34:36;2.00;2.00;0.00
77692;PMS5003;66984;47.404;18.836;2023-07-31T04:35:39;3.00;3.00;0.00
77692;PMS5003;66984;47.404;18.836;2023-07-31T04:36:42;3.00;3.00;0.00
77692;PMS5003;66984;47.404;18.836;2023-07-31T04:37:51;1.00;1.00;0.00
77692;PMS5003;66984;47.404;18.836;2023-07-31T04:38:54;2.00;2.00;0.00
77692;PMS5003;66984;47.404;18.836;2023-07-31T04:39:57;1.00;1.00;0.00
77692;PMS5003;66984;47.404;18.836;2023-07-31T04:41:00;1.00;1.00;0.00
77692;PMS5003;66984;47.404;18.836;2023-07-31T04:42:03;1.00;1.00;0.00
77692;PMS5003;66984;47.404;18.836;2023-07-31T04:43:12;1.00;1.00;0.00
77692;PMS5003;66984;47.404;18.836;2023-07-31T04:44:15;1.00;1.00;0.00
77692;PMS5003;66984;47.404;18.836;2023-07-31T04:45:18;1.75;1.75;0.00
77692;PMS5003;66984;47.404;18.836;2023-07-31T04:46:21;3.00;3.00;0.00
77692;PMS5003;66984;47.404;18.836;2023-07-31T04:47:30;1.00;1.00;0.00
77692;PMS5003;66984;47.404;18.836;2023-07-31T04:48:33;1.25;1.25;0.00
77692;PMS5003;66984;47.404;18.836;2023-07-31T04:49:36;1.00;1.00;0.00
77692;PMS5003;66984;47.404;18.836;2023-07-31T04:50:39;0.00;0.00;0.00
77692;PMS5003;66984;47.404;18.836;2023-07-31T04:51:42;1.00;1.00;0.00
77692;PMS5003;66984;47.404;18.836;2023-07-31T04:52:51;1.75;1.75;0.00
77692;PMS5003;66984;47.404;18.836;2023-07-31T04:53:54;1.75;1.75;0.00
77692;PMS5003;66984;47.404;18.836;2023-07-31T04:54:57;1.00;1.00;0.00
77692;PMS5003;66984;47.404;18.836;2023-07-31T04:56:00;0.00;0.00;0.00
77692;PMS5003;66984;47.404;18.836;2023-07-31T04:57:03;0.00;0.00;0.00
77692;PMS5003;66984;47.404;18.836;2023-07-31T04:58:12;0.00;0.00;0.00
77692;PMS5003;66984;47.404;18.836;2023-07-31T04:59:15;3.00;2.00;0.00
77692;PMS5003;66984;47.404;18.836;2023-07-31T05:00:18;3.00;2.00;0.00
77692;PMS5003;66984;47.404;18.836;2023-07-31T05:01:21;1.00;1.00;0.00
77692;PMS5003;66984;47.404;18.836;2023-07-31T05:02:24;1.25;1.25;0.00
77692;PMS5003;66984;47.404;18.836;2023-07-31T05:03:33;2.00;2.00;0.00
77692;PMS5003;66984;47.404;18.836;2023-07-31T05:04:36;3.00;3.00;0.00
77692;PMS5003;66984;47.404;18.836;2023-07-31T05:05:39;1.00;1.00;0.00
77692;PMS5003;66984;47.404;18.836;2023-07-31T05:06:42;1.00;1.00;0.00
77692;PMS5003;66984;47.404;18.836;2023-07-31T05:07:45;2.00;0.75;0.00
77692;PMS5003;66984;47.404;18.836;2023-07-31T05:08:54;1.75;0.75;0.00
77692;PMS5003;66984;47.404;18.836;2023-07-31T05:09:57;1.50;0.50;0.00
77692;PMS5003;66984;47.404;18.836;2023-07-31T05:11:00;2.00;2.00;0.00
77692;PMS5003;66984;47.404;18.836;2023-07-31T05:12:04;2.00;2.00;0.00
77692;PMS5003;66984;47.404;18.836;2023-07-31T05:13:07;1.00;1.00;0.00
77692;PMS5003;66984;47.404;18.836;2023-07-31T05:14:17;1.00;1.00;0.00
77692;PMS5003;66984;47.404;18.836;2023-07-31T05:15:20;0.50;0.50;0.00
77692;PMS5003;66984;47.404;18.836;2023-07-31T05:16:23;2.00;1.00;0.00
77692;PMS5003;66984;47.404;18.836;2023-07-31T05:17:26;1.00;1.00;0.00
77692;PMS5003;66984;47.404;18.836;2023-07-31T05:18:29;1.00;1.00;0.00
77692;PMS5003;66984;47.404;18.836;2023-07-31T05:19:38;2.00;1.00;0.00
77692;PMS5003;66984;47.404;18.836;2023-07-31T05:20:41;2.00;0.00;0.00
77692;PMS5003;66984;47.404;18.836;2023-07-31T05:21:44;1.00;1.00;0.00
77692;PMS5003;66984;47.404;18.836;2023-07-31T05:22:47;1.00;1.00;0.00
77692;PMS5003;66984;47.404;18.836;2023-07-31T05:23:50;0.25;0.25;0.00
77692;PMS5003;66984;47.404;18.836;2023-07-31T05:24:59;1.00;1.00;0.00
77692;PMS5003;66984;47.404;18.836;2023-07-31T05:26:03;2.75;2.50;0.00
77692;PMS5003;66984;47.404;18.836;2023-07-31T05:27:07;1.00;0.00;0.00
77692;PMS5003;66984;47.404;18.836;2023-07-31T05:28:09;2.00;1.50;0.00
77692;PMS5003;66984;47.404;18.836;2023-07-31T05:29:26;0.00;0.00;0.00
77692;PMS5003;66984;47.404;18.836;2023-07-31T05:30:35;1.00;1.00;0.00
77692;PMS5003;66984;47.404;18.836;2023-07-31T05:31:38;2.00;2.00;0.00
77692;PMS5003;66984;47.404;18.836;2023-07-31T05:32:47;2.00;2.00;0.00
77692;PMS5003;66984;47.404;18.836;2023-07-31T05:33:50;1.00;1.00;0.00
77692;PMS5003;66984;47.404;18.836;2023-07-31T05:34:53;0.00;0.00;0.00
77692;PMS5003;66984;47.404;18.836;2023-07-31T05:36:02;0.50;0.00;0.00
77692;PMS5003;66984;47.404;18.836;2023-07-31T05:37:05;0.00;0.00;0.00
77692;PMS5003;66984;47.404;18.836;2023-07-31T05:38:08;0.00;0.00;0.00
77692;PMS5003;66984;47.404;18.836;2023-07-31T05:39:17;0.00;0.00;0.00
77692;PMS5003;66984;47.404;18.836;2023-07-31T05:40:22;0.00;0.00;0.00
77692;PMS5003;66984;47.404;18.836;2023-07-31T05:41:25;0.00;0.00;0.00
77692;PMS5003;66984;47.404;18.836;2023-07-31T05:42:27;1.00;0.00;0.00
77692;PMS5003;66984;47.404;18.836;2023-07-31T05:43:30;2.00;2.00;0.00
77692;PMS5003;66984;47.404;18.836;2023-07-31T05:44:39;0.25;0.25;0.00
77692;PMS5003;66984;47.404;18.836;2023-07-31T05:45:42;1.25;1.00;0.00
77692;PMS5003;66984;47.404;18.836;2023-07-31T05:46:45;1.00;0.00;0.00
77692;PMS5003;66984;47.404;18.836;2023-07-31T05:47:48;0.00;0.00;0.00
77692;PMS5003;66984;47.404;18.836;2023-07-31T05:48:51;0.00;0.00;0.00
77692;PMS5003;66984;47.404;18.836;2023-07-31T05:50:00;1.00;1.00;0.00
77692;PMS5003;66984;47.404;18.836;2023-07-31T05:51:03;1.00;1.00;0.00
77692;PMS5003;66984;47.404;18.836;2023-07-31T05:52:06;0.75;0.75;0.00
77692;PMS5003;66984;47.404;18.836;2023-07-31T05:53:09;0.25;0.00;0.00
77692;PMS5003;66984;47.404;18.836;2023-07-31T05:54:12;2.00;1.25;0.00
77692;PMS5003;66984;47.404;18.836;2023-07-31T05:55:23;3.00;2.75;0.00
77692;PMS5003;66984;47.404;18.836;2023-07-31T05:56:35;1.25;1.00;0.00
77692;PMS5003;66984;47.404;18.836;2023-07-31T05:57:39;1.00;1.00;0.00
77692;PMS5003;66984;47.404;18.836;2023-07-31T05:58:42;1.25;1.25;0.00
77692;PMS5003;66984;47.404;18.836;2023-07-31T05:59:44;0.00;0.00;0.00
77692;PMS5003;66984;47.404;18.836;2023-07-31T06:00:47;0.00;0.00;0.00
77692;PMS5003;66984;47.404;18.836;2023-07-31T06:01:56;1.00;0.00;0.00
77692;PMS5003;66984;47.404;18.836;2023-07-31T06:02:59;2.00;1.00;0.00
77692;PMS5003;66984;47.404;18.836;2023-07-31T06:04:02;0.75;0.75;0.00
77692;PMS5003;66984;47.404;18.836;2023-07-31T06:05:06;1.00;1.00;0.00
77692;PMS5003;66984;47.404;18.836;2023-07-31T06:06:09;0.25;0.00;0.00
77692;PMS5003;66984;47.404;18.836;2023-07-31T06:07:18;1.00;0.00;0.00
77692;PMS5003;66984;47.404;18.836;2023-07-31T06:08:21;0.00;0.00;0.00
77692;PMS5003;66984;47.404;18.836;2023-07-31T06:09:24;0.00;0.00;0.00
77692;PMS5003;66984;47.404;18.836;2023-07-31T06:10:28;0.00;0.00;0.00
77692;PMS5003;66984;47.404;18.836;2023-07-31T06:11:31;0.00;0.00;0.00
77692;PMS5003;66984;47.404;18.836;2023-07-31T06:12:40;0.00;0.00;0.00
77692;PMS5003;66984;47.404;18.836;2023-07-31T06:13:43;0.00;0.00;0.00
77692;PMS5003;66984;47.404;18.836;2023-07-31T06:14:47;0.00;0.00;0.00
77692;PMS5003;66984;47.404;18.836;2023-07-31T06:15:50;1.00;1.00;0.00
77692;PMS5003;66984;47.404;18.836;2023-07-31T06:16:53;2.00;1.00;0.00
77692;PMS5003;66984;47.404;18.836;2023-07-31T06:18:02;0.00;0.00;0.00
77692;PMS5003;66984;47.404;18.836;2023-07-31T06:19:07;2.00;1.00;0.00
77692;PMS5003;66984;47.404;18.836;2023-07-31T06:20:10;1.00;1.00;0.00
77692;PMS5003;66984;47.404;18.836;2023-07-31T06:21:13;1.00;1.00;0.00
77692;PMS5003;66984;47.404;18.836;2023-07-31T06:22:16;2.25;1.25;0.00
77692;PMS5003;66984;47.404;18.836;2023-07-31T06:23:25;0.75;0.00;0.00